createdAt,value
2016-12-29T00:00:49.166Z,6.8
2016-12-29T00:01:55.163Z,6.7
2016-12-29T00:03:01.164Z,6.7
2016-12-29T00:04:07.162Z,6.7
2016-12-29T00:05:13.157Z,6.7
2016-12-29T00:06:19.157Z,6.8
2016-12-29T00:07:25.153Z,6.7
2016-12-29T00:08:31.154Z,6.8
2016-12-29T00:09:37.156Z,6.8
2016-12-29T00:10:43.161Z,6.7
2016-12-29T00:11:49.164Z,6.6
2016-12-29T00:12:55.159Z,6.7
2016-12-29T00:14:01.172Z,6.7
2016-12-29T00:15:07.153Z,6.7
2016-12-29T00:16:13.152Z,6.7
2016-12-29T00:17:19.154Z,6.6
2016-12-29T00:18:25.152Z,6.5
2016-12-29T00:19:31.152Z,6.6
2016-12-29T00:20:37.145Z,6.6
2016-12-29T00:21:43.145Z,6.6
2016-12-29T00:22:49.143Z,6.6
2016-12-29T00:23:55.146Z,6.6
2016-12-29T00:25:01.143Z,6.6
2016-12-29T00:26:07.140Z,6.7
2016-12-29T00:27:13.143Z,6.7
2016-12-29T00:28:19.143Z,6.7
2016-12-29T00:29:25.143Z,6.7
2016-12-29T00:30:31.146Z,6.8
2016-12-29T00:31:37.143Z,6.8
2016-12-29T00:32:43.146Z,6.4
2016-12-29T00:33:49.143Z,6.5
2016-12-29T00:34:55.138Z,6.6
2016-12-29T00:36:01.133Z,6.6
2016-12-29T00:37:07.130Z,6.6
2016-12-29T00:38:13.125Z,6.6
2016-12-29T00:39:19.121Z,6.6
2016-12-29T00:40:25.123Z,6.6
2016-12-29T00:41:31.117Z,6.5
2016-12-29T00:42:37.117Z,6.6
2016-12-29T00:43:43.119Z,6.6
2016-12-29T00:44:49.121Z,6.5
2016-12-29T00:45:55.117Z,6.4
2016-12-29T00:47:01.116Z,6.5
2016-12-29T00:48:07.119Z,6.6
2016-12-29T00:49:13.122Z,6.6
2016-12-29T00:50:19.114Z,6.6
2016-12-29T00:51:25.116Z,6.6
2016-12-29T00:52:31.113Z,6.7
2016-12-29T00:53:37.125Z,6.5
2016-12-29T00:54:43.111Z,6.5
2016-12-29T00:55:49.111Z,6.5
2016-12-29T00:56:55.110Z,6.4
2016-12-29T00:58:01.117Z,6.4
2016-12-29T00:59:07.228Z,6.4
2016-12-29T01:00:13.232Z,6.4
2016-12-29T01:01:19.237Z,6.4
2016-12-29T01:02:25.240Z,6.4
2016-12-29T01:03:31.233Z,6.4
2016-12-29T01:04:37.238Z,6.3
2016-12-29T01:05:43.238Z,6.3
2016-12-29T01:06:49.235Z,6.3
2016-12-29T01:07:55.232Z,6.3
2016-12-29T01:09:01.235Z,6.4
2016-12-29T01:10:07.232Z,6.4
2016-12-29T01:11:13.224Z,6.3
2016-12-29T01:12:19.220Z,6.4
2016-12-29T01:13:25.224Z,6.4
2016-12-29T01:14:31.221Z,6.4
2016-12-29T01:15:37.218Z,6.5
2016-12-29T01:16:43.220Z,6.5
2016-12-29T01:17:49.212Z,6.4
2016-12-29T01:18:55.215Z,6.5
2016-12-29T01:20:01.218Z,6.5
2016-12-29T01:21:07.218Z,6.5
2016-12-29T01:22:13.210Z,6.5
2016-12-29T01:23:19.220Z,6.6
2016-12-29T01:24:25.213Z,6.6
2016-12-29T01:25:31.211Z,6.6
2016-12-29T01:26:37.199Z,6.6
2016-12-29T01:27:43.214Z,6.6
2016-12-29T01:28:49.210Z,6.6
2016-12-29T01:29:55.200Z,6.7
2016-12-29T01:31:01.199Z,6.6
2016-12-29T01:32:07.207Z,6.6
2016-12-29T01:33:13.214Z,6.4
2016-12-29T01:34:19.215Z,6.4
2016-12-29T01:35:25.219Z,6.4
2016-12-29T01:36:31.213Z,6.4
2016-12-29T01:37:37.214Z,6.4
2016-12-29T01:38:43.213Z,6.5
2016-12-29T01:39:49.221Z,6.6
2016-12-29T01:40:55.223Z,6.6
2016-12-29T01:42:01.218Z,6.5
2016-12-29T01:43:07.210Z,6.6
2016-12-29T01:44:13.206Z,6.5
2016-12-29T01:45:19.207Z,6.5
2016-12-29T01:46:25.205Z,6.5
2016-12-29T01:47:31.202Z,6.5
2016-12-29T01:48:37.211Z,6.5
2016-12-29T01:49:43.212Z,6.5
2016-12-29T01:50:49.206Z,6.5
2016-12-29T01:51:55.204Z,6.5
2016-12-29T01:53:01.214Z,6.5
2016-12-29T01:54:07.202Z,6.5
2016-12-29T01:55:13.196Z,6.5
2016-12-29T01:56:19.193Z,6.5
2016-12-29T01:57:25.194Z,6.4
2016-12-29T01:58:31.194Z,6.5
2016-12-29T01:59:37.191Z,6.6
2016-12-29T02:00:43.193Z,6.5
2016-12-29T02:01:49.186Z,6.5
2016-12-29T02:02:55.181Z,6.6
2016-12-29T02:04:01.183Z,6.6
2016-12-29T02:05:07.184Z,6.5
2016-12-29T02:06:13.182Z,6.5
2016-12-29T02:07:19.181Z,6.5
2016-12-29T02:08:25.178Z,6.4
2016-12-29T02:09:31.179Z,6.4
2016-12-29T02:10:37.179Z,6.4
2016-12-29T02:11:43.177Z,6.4
2016-12-29T02:12:49.176Z,6.4
2016-12-29T02:13:55.178Z,6.4
2016-12-29T02:15:01.179Z,6.4
2016-12-29T02:16:07.182Z,6.4
2016-12-29T02:17:13.176Z,6.5
2016-12-29T02:18:19.166Z,6.5
2016-12-29T02:19:25.174Z,6.5
2016-12-29T02:20:31.169Z,6.4
2016-12-29T02:21:37.163Z,6.4
2016-12-29T02:22:43.164Z,6.5
2016-12-29T02:23:49.167Z,6.5
2016-12-29T02:24:55.169Z,6.5
2016-12-29T02:26:01.163Z,6.5
2016-12-29T02:27:07.164Z,6.6
2016-12-29T02:28:13.163Z,6.6
2016-12-29T02:29:19.159Z,6.5
2016-12-29T02:30:25.156Z,6.5
2016-12-29T02:31:31.151Z,6.5
2016-12-29T02:32:37.159Z,6.5
2016-12-29T02:33:43.158Z,6.6
2016-12-29T02:34:49.147Z,6.5
2016-12-29T02:35:55.144Z,6.5
2016-12-29T02:37:01.144Z,6.4
2016-12-29T02:38:07.143Z,6.3
2016-12-29T02:39:13.138Z,6.3
2016-12-29T02:40:19.147Z,6.4
2016-12-29T02:41:25.151Z,6.4
2016-12-29T02:42:31.151Z,6.3
2016-12-29T02:43:37.146Z,6.4
2016-12-29T02:44:43.158Z,6.4
2016-12-29T02:45:49.148Z,6.3
2016-12-29T02:46:55.141Z,6.3
2016-12-29T02:48:00.468Z,6.3
2016-12-29T02:49:06.475Z,6.3
2016-12-29T02:50:12.472Z,6.3
2016-12-29T02:51:18.474Z,6.3
2016-12-29T02:52:24.469Z,6.3
2016-12-29T02:53:30.470Z,6.3
2016-12-29T02:54:36.473Z,6.4
2016-12-29T02:55:42.465Z,6.4
2016-12-29T02:56:48.463Z,6.3
2016-12-29T02:57:54.460Z,6.3
2016-12-29T02:58:59.798Z,6.4
2016-12-29T03:00:05.800Z,6.4
2016-12-29T03:01:11.792Z,6.3
2016-12-29T03:02:17.789Z,6.3
2016-12-29T03:03:23.793Z,6.2
2016-12-29T03:04:29.784Z,6.3
2016-12-29T03:05:35.782Z,6.3
2016-12-29T03:06:41.778Z,6.4
2016-12-29T03:07:47.785Z,6.4
2016-12-29T03:08:53.776Z,6.3
2016-12-29T03:09:59.780Z,6.1
2016-12-29T03:11:05.785Z,6.2
2016-12-29T03:12:11.799Z,6.1
2016-12-29T03:13:17.786Z,6.2
2016-12-29T03:14:23.788Z,6.3
2016-12-29T03:15:29.791Z,6.3
2016-12-29T03:16:35.801Z,6.4
2016-12-29T03:17:41.803Z,6.2
2016-12-29T03:18:47.801Z,6.2
2016-12-29T03:19:53.797Z,6.3
2016-12-29T03:20:59.797Z,6.3
2016-12-29T03:22:05.793Z,6.3
2016-12-29T03:23:11.797Z,6.3
2016-12-29T03:24:17.783Z,6.3
2016-12-29T03:25:23.780Z,6.3
2016-12-29T03:26:29.774Z,6.4
2016-12-29T03:27:35.782Z,6.4
2016-12-29T03:28:41.775Z,6.4
2016-12-29T03:29:47.775Z,6.5
2016-12-29T03:30:53.769Z,6.5
2016-12-29T03:31:59.770Z,6.3
2016-12-29T03:33:05.770Z,6.3
2016-12-29T03:34:11.762Z,6.3
2016-12-29T03:35:17.762Z,6.4
2016-12-29T03:36:23.763Z,6.4
2016-12-29T03:37:29.768Z,6.4
2016-12-29T03:38:35.772Z,6.4
2016-12-29T03:39:41.771Z,6.3
2016-12-29T03:40:47.771Z,6.3
2016-12-29T03:41:53.764Z,6.2
2016-12-29T03:42:59.768Z,6.2
2016-12-29T03:44:05.773Z,6.3
2016-12-29T03:45:11.779Z,6.1
2016-12-29T03:46:17.770Z,6.2
2016-12-29T03:47:23.768Z,6.2
2016-12-29T03:48:29.763Z,6.2
2016-12-29T03:49:35.760Z,6.2
2016-12-29T03:50:41.763Z,6.2
2016-12-29T03:51:47.766Z,6.2
2016-12-29T03:52:53.768Z,6.2
2016-12-29T03:53:59.764Z,6.3
2016-12-29T03:55:05.766Z,6.3
2016-12-29T03:56:11.764Z,6.4
2016-12-29T03:57:17.760Z,6.4
2016-12-29T03:58:23.756Z,6.4
2016-12-29T03:59:29.755Z,6.3
2016-12-29T04:00:35.756Z,6.3
2016-12-29T04:01:41.755Z,6.4
2016-12-29T04:02:47.744Z,6.4
2016-12-29T04:03:53.737Z,6.4
2016-12-29T04:04:59.742Z,6.3
2016-12-29T04:06:05.741Z,6.3
2016-12-29T04:07:11.733Z,6.4
2016-12-29T04:08:17.728Z,6.1
2016-12-29T04:09:23.733Z,6.1
2016-12-29T04:10:29.736Z,6.2
2016-12-29T04:11:35.729Z,6.2
2016-12-29T04:12:41.736Z,6.1
2016-12-29T04:13:47.733Z,6.2
2016-12-29T04:14:53.730Z,6.2
2016-12-29T04:15:59.729Z,6.2
2016-12-29T04:17:05.728Z,6.2
2016-12-29T04:18:11.726Z,6.3
2016-12-29T04:19:17.728Z,6.2
2016-12-29T04:20:23.728Z,6.3
2016-12-29T04:21:29.730Z,6.2
2016-12-29T04:22:35.726Z,6.1
2016-12-29T04:23:41.729Z,6
2016-12-29T04:24:47.728Z,6.1
2016-12-29T04:25:53.730Z,6.1
2016-12-29T04:26:59.733Z,6.2
2016-12-29T04:28:05.739Z,6.2
2016-12-29T04:29:11.731Z,6.2
2016-12-29T04:30:17.733Z,6.2
2016-12-29T04:31:23.731Z,6.2
2016-12-29T04:32:29.749Z,6.2
2016-12-29T04:33:35.753Z,6.2
2016-12-29T04:34:41.750Z,6.2
2016-12-29T04:35:47.746Z,6.2
2016-12-29T04:36:53.738Z,6.3
2016-12-29T04:37:59.738Z,6.2
2016-12-29T04:39:05.739Z,6.3
2016-12-29T04:40:11.744Z,6.2
2016-12-29T04:41:17.740Z,6.1
2016-12-29T04:42:23.738Z,6
2016-12-29T04:43:29.744Z,6
2016-12-29T04:44:35.735Z,5.9
2016-12-29T04:45:41.725Z,6
2016-12-29T04:46:47.725Z,6
2016-12-29T04:47:53.730Z,6
2016-12-29T04:48:59.728Z,6
2016-12-29T04:50:05.724Z,6
2016-12-29T04:51:11.727Z,6.1
2016-12-29T04:52:17.716Z,6.2
2016-12-29T04:53:23.718Z,6.2
2016-12-29T04:54:29.712Z,6.2
2016-12-29T04:55:35.708Z,6.2
2016-12-29T04:56:41.706Z,6.2
2016-12-29T04:57:47.705Z,6.2
2016-12-29T04:58:53.713Z,6.1
2016-12-29T04:59:59.714Z,6.2
2016-12-29T05:01:05.716Z,6.2
2016-12-29T05:02:11.715Z,6.3
2016-12-29T05:03:17.704Z,6.3
2016-12-29T05:04:23.705Z,6.3
2016-12-29T05:05:29.706Z,6.2
2016-12-29T05:06:35.704Z,6.1
2016-12-29T05:07:41.705Z,6.1
2016-12-29T05:08:47.703Z,6
2016-12-29T05:09:53.704Z,6
2016-12-29T05:10:59.695Z,6.1
2016-12-29T05:12:05.027Z,6
2016-12-29T05:13:11.033Z,6.1
2016-12-29T05:14:17.039Z,6.1
2016-12-29T05:15:23.034Z,6
2016-12-29T05:16:29.029Z,5.9
2016-12-29T05:17:35.035Z,5.9
2016-12-29T05:18:41.027Z,5.9
2016-12-29T05:19:47.028Z,6
2016-12-29T05:20:53.021Z,5.9
2016-12-29T05:21:59.031Z,5.9
2016-12-29T05:23:05.023Z,5.9
2016-12-29T05:24:11.022Z,5.9
2016-12-29T05:25:17.027Z,6
2016-12-29T05:26:23.029Z,6
2016-12-29T05:27:29.023Z,6.1
2016-12-29T05:28:35.019Z,6.1
2016-12-29T05:29:41.016Z,6.1
2016-12-29T05:30:47.008Z,6.1
2016-12-29T05:31:53.012Z,6
2016-12-29T05:32:59.016Z,6
2016-12-29T05:34:05.016Z,6
2016-12-29T05:35:11.015Z,6
2016-12-29T05:36:17.009Z,6.1
2016-12-29T05:37:23.007Z,6.1
2016-12-29T05:38:28.999Z,6
2016-12-29T05:39:35.002Z,5.9
2016-12-29T05:40:40.995Z,5.7
2016-12-29T05:41:46.997Z,5.8
2016-12-29T05:42:53.000Z,5.8
2016-12-29T05:43:59.003Z,5.8
2016-12-29T05:45:05.001Z,5.8
2016-12-29T05:46:10.999Z,5.9
2016-12-29T05:47:16.995Z,5.8
2016-12-29T05:48:22.992Z,5.9
2016-12-29T05:49:28.991Z,6
2016-12-29T05:50:34.980Z,6
2016-12-29T05:51:40.980Z,5.8
2016-12-29T05:52:46.983Z,5.8
2016-12-29T05:53:52.971Z,5.8
2016-12-29T05:54:58.971Z,5.7
2016-12-29T05:56:04.973Z,5.6
2016-12-29T05:57:10.973Z,5.6
2016-12-29T05:58:16.967Z,5.5
2016-12-29T05:59:22.965Z,5.6
2016-12-29T06:00:28.967Z,5.7
2016-12-29T06:01:34.969Z,5.8
2016-12-29T06:02:40.970Z,5.8
2016-12-29T06:03:46.970Z,5.7
2016-12-29T06:04:52.968Z,5.7
2016-12-29T06:05:58.964Z,5.7
2016-12-29T06:07:04.959Z,5.8
2016-12-29T06:08:10.951Z,5.9
2016-12-29T06:09:16.959Z,5.9
2016-12-29T06:10:22.951Z,5.9
2016-12-29T06:11:28.954Z,5.9
2016-12-29T06:12:34.961Z,5.8
2016-12-29T06:13:40.961Z,5.7
2016-12-29T06:14:46.955Z,5.6
2016-12-29T06:15:52.946Z,5.7
2016-12-29T06:16:58.943Z,5.7
2016-12-29T06:18:04.942Z,5.7
2016-12-29T06:19:10.942Z,5.7
2016-12-29T06:20:16.944Z,5.7
2016-12-29T06:21:22.944Z,5.6
2016-12-29T06:22:28.949Z,5.6
2016-12-29T06:23:34.940Z,5.7
2016-12-29T06:24:40.933Z,5.7
2016-12-29T06:25:46.923Z,5.7
2016-12-29T06:26:52.934Z,5.8
2016-12-29T06:27:58.924Z,5.8
2016-12-29T06:29:04.923Z,5.9
2016-12-29T06:30:10.926Z,5.7
2016-12-29T06:31:16.934Z,5.7
2016-12-29T06:32:22.931Z,5.6
2016-12-29T06:33:28.926Z,5.6
2016-12-29T06:34:34.932Z,5.7
2016-12-29T06:35:40.921Z,5.7
2016-12-29T06:36:46.920Z,5.7
2016-12-29T06:37:52.251Z,5.6
2016-12-29T06:38:58.258Z,5.7
2016-12-29T06:40:04.256Z,5.7
2016-12-29T06:41:10.253Z,5.7
2016-12-29T06:42:16.257Z,5.7
2016-12-29T06:43:22.247Z,5.7
2016-12-29T06:44:28.243Z,5.6
2016-12-29T06:45:34.246Z,5.6
2016-12-29T06:46:40.238Z,5.6
2016-12-29T06:47:46.235Z,5.4
2016-12-29T06:48:52.229Z,5.4
2016-12-29T06:49:58.234Z,5.5
2016-12-29T06:51:04.222Z,5.5
2016-12-29T06:52:10.220Z,5.6
2016-12-29T06:53:16.227Z,5.7
2016-12-29T06:54:22.235Z,5.6
2016-12-29T06:55:28.226Z,5.5
2016-12-29T06:56:34.227Z,5.4
2016-12-29T06:57:40.227Z,5.3
2016-12-29T06:58:46.219Z,5.4
2016-12-29T06:59:52.214Z,5.4
2016-12-29T07:00:58.214Z,5.4
2016-12-29T07:02:04.213Z,5.5
2016-12-29T07:03:10.201Z,5.6
2016-12-29T07:04:16.199Z,5.6
2016-12-29T07:05:22.197Z,5.6
2016-12-29T07:06:28.199Z,5.4
2016-12-29T07:07:34.196Z,5.3
2016-12-29T07:08:40.193Z,5.3
2016-12-29T07:09:46.192Z,5.3
2016-12-29T07:10:52.199Z,5.4
2016-12-29T07:11:58.201Z,5.4
2016-12-29T07:13:04.198Z,5.5
2016-12-29T07:14:10.197Z,5.6
2016-12-29T07:15:16.198Z,5.5
2016-12-29T07:16:22.198Z,5.6
2016-12-29T07:17:28.185Z,5.7
2016-12-29T07:18:34.188Z,5.6
2016-12-29T07:19:40.191Z,5.5
2016-12-29T07:20:46.192Z,5.4
2016-12-29T07:21:52.183Z,5.5
2016-12-29T07:22:58.185Z,5.5
2016-12-29T07:24:04.187Z,5.4
2016-12-29T07:25:10.191Z,5.4
2016-12-29T07:26:16.189Z,5.4
2016-12-29T07:27:22.188Z,5.2
2016-12-29T07:28:28.186Z,5.2
2016-12-29T07:29:34.188Z,5.3
2016-12-29T07:30:40.185Z,5.4
2016-12-29T07:31:46.186Z,5.5
2016-12-29T07:32:52.188Z,5.5
2016-12-29T07:33:58.187Z,5.5
2016-12-29T07:35:04.185Z,5.5
2016-12-29T07:36:10.181Z,5.6
2016-12-29T07:37:16.181Z,5.6
2016-12-29T07:38:22.180Z,5.6
2016-12-29T07:39:28.175Z,5.2
2016-12-29T07:40:34.182Z,5.2
2016-12-29T07:41:40.184Z,5.3
2016-12-29T07:42:46.180Z,5.4
2016-12-29T07:43:52.178Z,5.4
2016-12-29T07:44:58.181Z,5.4
2016-12-29T07:46:04.175Z,5.5
2016-12-29T07:47:10.179Z,5.4
2016-12-29T07:48:16.169Z,5.4
2016-12-29T07:49:22.168Z,5.5
2016-12-29T07:50:28.165Z,5.5
2016-12-29T07:51:34.165Z,5.2
2016-12-29T07:52:40.163Z,5.1
2016-12-29T07:53:46.166Z,5.3
2016-12-29T07:54:52.161Z,5.4
2016-12-29T07:55:58.156Z,5.3
2016-12-29T07:57:04.153Z,5.4
2016-12-29T07:58:10.156Z,5.4
2016-12-29T07:59:16.167Z,5.4
2016-12-29T08:00:22.161Z,5.3
2016-12-29T08:01:28.161Z,5.2
2016-12-29T08:02:34.167Z,5.1
2016-12-29T08:03:40.158Z,5.2
2016-12-29T08:04:46.154Z,5.3
2016-12-29T08:05:52.149Z,5.4
2016-12-29T08:06:58.156Z,5.4
2016-12-29T08:08:04.154Z,5.4
2016-12-29T08:09:10.156Z,5.4
2016-12-29T08:10:15.496Z,5.5
2016-12-29T08:11:21.503Z,5.5
2016-12-29T08:12:27.501Z,5.6
2016-12-29T08:13:33.499Z,5.6
2016-12-29T08:14:39.498Z,5.4
2016-12-29T08:15:45.503Z,5.4
2016-12-29T08:16:51.493Z,5.4
2016-12-29T08:17:57.504Z,5.4
2016-12-29T08:19:03.497Z,5.4
2016-12-29T08:20:09.512Z,5.4
2016-12-29T08:21:15.514Z,5.5
2016-12-29T08:22:21.523Z,5.7
2016-12-29T08:23:27.522Z,5.7
2016-12-29T08:24:33.520Z,5.6
2016-12-29T08:25:39.523Z,5.5
2016-12-29T08:26:45.522Z,5.4
2016-12-29T08:27:51.524Z,5.3
2016-12-29T08:28:57.563Z,5.4
2016-12-29T08:30:03.561Z,5.4
2016-12-29T08:31:09.553Z,5.4
2016-12-29T08:32:15.564Z,5.2
2016-12-29T08:33:21.559Z,5.1
2016-12-29T08:34:27.563Z,5.3
2016-12-29T08:35:33.600Z,5.4
2016-12-29T08:36:39.609Z,5.4
2016-12-29T08:37:45.603Z,5.5
2016-12-29T08:38:51.597Z,5.5
2016-12-29T08:39:57.585Z,5.3
2016-12-29T08:41:03.598Z,5.3
2016-12-29T08:42:09.619Z,5.4
2016-12-29T08:43:15.610Z,5.5
2016-12-29T08:44:21.609Z,5.5
2016-12-29T08:45:27.631Z,5.4
2016-12-29T08:46:33.606Z,5.5
2016-12-29T08:47:39.642Z,5.5
2016-12-29T08:48:45.615Z,5.5
2016-12-29T08:49:51.614Z,5.5
2016-12-29T08:50:57.615Z,5.6
2016-12-29T08:52:03.610Z,5.7
2016-12-29T08:53:09.645Z,5.7
2016-12-29T08:54:15.615Z,5.8
2016-12-29T08:55:21.635Z,5.8
2016-12-29T08:56:27.635Z,5.8
2016-12-29T08:57:33.631Z,5.8
2016-12-29T08:58:39.676Z,5.7
2016-12-29T08:59:45.674Z,5.8
2016-12-29T09:00:51.742Z,5.8
2016-12-29T09:01:57.762Z,5.7
2016-12-29T09:03:03.801Z,5.5
2016-12-29T09:04:09.773Z,5.5
2016-12-29T09:05:15.777Z,5.5
2016-12-29T09:06:21.770Z,5.5
2016-12-29T09:07:27.799Z,5.5
2016-12-29T09:08:33.775Z,5.5
2016-12-29T09:09:39.776Z,5.6
2016-12-29T09:10:45.776Z,5.2
2016-12-29T09:11:51.812Z,5.2
2016-12-29T09:12:57.786Z,5.1
2016-12-29T09:14:03.786Z,5.1
2016-12-29T09:15:09.780Z,5.1
2016-12-29T09:16:15.856Z,5.3
2016-12-29T09:17:21.854Z,5.4
2016-12-29T09:18:27.851Z,5.4
2016-12-29T09:19:33.851Z,5.4
2016-12-29T09:20:39.867Z,5.4
2016-12-29T09:21:45.857Z,5.4
2016-12-29T09:22:51.852Z,5
2016-12-29T09:23:57.851Z,5.1
2016-12-29T09:25:03.967Z,5.2
2016-12-29T09:26:09.956Z,5.3
2016-12-29T09:27:15.955Z,5.3
2016-12-29T09:28:21.956Z,5.2
2016-12-29T09:29:27.972Z,5.3
2016-12-29T09:30:33.958Z,5.1
2016-12-29T09:31:39.955Z,5.2
2016-12-29T09:32:45.952Z,5.2
2016-12-29T09:33:52.024Z,5.3
2016-12-29T09:34:58.029Z,5.4
2016-12-29T09:36:04.025Z,5.4
2016-12-29T09:37:10.030Z,5.3
2016-12-29T09:38:16.025Z,5.3
2016-12-29T09:39:22.027Z,5.3
2016-12-29T09:40:28.021Z,5.3
2016-12-29T09:41:34.030Z,5.3
2016-12-29T09:42:40.031Z,5.3
2016-12-29T09:43:46.033Z,5.3
2016-12-29T09:44:52.022Z,5.3
2016-12-29T09:45:58.020Z,5.2
2016-12-29T09:47:04.025Z,5.1
2016-12-29T09:48:10.016Z,5.2
2016-12-29T09:49:16.027Z,5.3
2016-12-29T09:50:22.029Z,5.3
2016-12-29T09:51:28.029Z,5.2
2016-12-29T09:52:34.026Z,5.3
2016-12-29T09:53:40.030Z,5.4
2016-12-29T09:54:46.028Z,5.5
2016-12-29T09:55:52.030Z,5.4
2016-12-29T09:56:58.028Z,5.3
2016-12-29T09:58:04.031Z,5.3
2016-12-29T09:59:10.028Z,5.2
2016-12-29T10:00:16.033Z,5.3
2016-12-29T10:01:22.028Z,5.3
2016-12-29T10:02:28.029Z,5.2
2016-12-29T10:03:34.024Z,5.2
2016-12-29T10:04:40.026Z,5.3
2016-12-29T10:05:46.025Z,5.3
2016-12-29T10:06:52.019Z,5.4
2016-12-29T10:07:58.013Z,5.4
2016-12-29T10:09:04.024Z,5.3
2016-12-29T10:10:10.032Z,5.4
2016-12-29T10:11:16.028Z,5.5
2016-12-29T10:12:22.034Z,5.5
2016-12-29T10:13:28.036Z,5.6
2016-12-29T10:14:34.034Z,5.6
2016-12-29T10:15:40.031Z,5.7
2016-12-29T10:16:46.033Z,5.8
2016-12-29T10:17:52.022Z,5.8
2016-12-29T10:18:58.023Z,5.9
2016-12-29T10:20:04.026Z,6
2016-12-29T10:21:10.022Z,6.2
2016-12-29T10:22:16.020Z,6.2
2016-12-29T10:23:22.019Z,6.2
2016-12-29T10:24:28.017Z,5.9
2016-12-29T10:25:34.020Z,6
2016-12-29T10:26:40.021Z,5.9
2016-12-29T10:27:46.019Z,5.9
2016-12-29T10:28:52.015Z,6
2016-12-29T10:29:58.017Z,6.1
2016-12-29T10:31:04.025Z,6.2
2016-12-29T10:32:10.020Z,6.3
2016-12-29T10:33:16.025Z,5.9
2016-12-29T10:34:22.025Z,5.9
2016-12-29T10:35:28.023Z,6.2
2016-12-29T10:36:34.017Z,6.4
2016-12-29T10:37:40.018Z,6.5
2016-12-29T10:38:46.021Z,6.4
2016-12-29T10:39:52.024Z,6.3
2016-12-29T10:40:58.023Z,6.2
2016-12-29T10:42:04.036Z,6.4
2016-12-29T10:43:10.025Z,6.4
2016-12-29T10:44:16.027Z,6.6
2016-12-29T10:45:22.551Z,6.9
2016-12-29T10:46:28.277Z,6.7
2016-12-29T10:47:34.262Z,6.6
2016-12-29T10:48:40.275Z,6.5
2016-12-29T10:49:46.268Z,6.5
2016-12-29T10:50:52.267Z,6.3
2016-12-29T10:51:58.265Z,6.3
2016-12-29T10:53:04.262Z,6.5
2016-12-29T10:54:10.259Z,6.2
2016-12-29T10:55:16.252Z,6.3
2016-12-29T10:56:22.256Z,6.4
2016-12-29T10:57:28.257Z,6.6
2016-12-29T10:58:34.253Z,6.8
2016-12-29T10:59:40.253Z,7.1
2016-12-29T11:00:46.251Z,6.8
2016-12-29T11:01:52.255Z,6.6
2016-12-29T11:02:58.251Z,6.6
2016-12-29T11:04:04.247Z,6.3
2016-12-29T11:05:10.250Z,6.5
2016-12-29T11:06:16.252Z,6.4
2016-12-29T11:07:22.255Z,6.8
2016-12-29T11:08:28.251Z,7
2016-12-29T11:09:34.257Z,6.7
2016-12-29T11:10:40.261Z,6.8
2016-12-29T11:11:46.259Z,7.1
2016-12-29T11:12:52.245Z,7.2
2016-12-29T11:13:58.251Z,7.4
2016-12-29T11:15:04.254Z,7.2
2016-12-29T11:16:10.244Z,6.9
2016-12-29T11:17:16.250Z,6.8
2016-12-29T11:18:22.252Z,6.8
2016-12-29T11:19:28.254Z,6.8
2016-12-29T11:20:34.260Z,6.3
2016-12-29T11:21:40.254Z,6.4
2016-12-29T11:22:46.249Z,6.8
2016-12-29T11:23:52.246Z,7
2016-12-29T11:24:58.238Z,7.2
2016-12-29T11:26:04.246Z,7.2
2016-12-29T11:27:10.242Z,7.3
2016-12-29T11:28:16.241Z,7.6
2016-12-29T11:29:22.243Z,7.5
2016-12-29T11:30:28.246Z,7
2016-12-29T11:31:34.242Z,6.6
2016-12-29T11:32:40.242Z,6.9
2016-12-29T11:33:46.251Z,6.8
2016-12-29T11:34:52.241Z,6.9
2016-12-29T11:35:58.238Z,7.1
2016-12-29T11:37:04.241Z,7.5
2016-12-29T11:38:10.254Z,7.4
2016-12-29T11:39:16.245Z,7.6
2016-12-29T11:40:22.249Z,7.6
2016-12-29T11:41:28.248Z,8.3
2016-12-29T11:42:34.254Z,8.1
2016-12-29T11:43:40.242Z,7.9
2016-12-29T11:44:46.241Z,8
2016-12-29T11:45:52.239Z,8.3
2016-12-29T11:46:58.265Z,8.7
2016-12-29T11:48:04.242Z,8.8
2016-12-29T11:49:10.246Z,8.8
2016-12-29T11:50:16.249Z,8.5
2016-12-29T11:51:22.256Z,7.3
2016-12-29T11:52:28.244Z,7.3
2016-12-29T11:53:34.244Z,7.7
2016-12-29T11:54:40.242Z,7.3
2016-12-29T11:55:46.245Z,7.1
2016-12-29T11:56:52.239Z,7.8
2016-12-29T11:57:58.235Z,8.1
2016-12-29T11:59:04.238Z,7.3
2016-12-29T12:00:10.254Z,7.7
2016-12-29T12:01:16.244Z,7.9
2016-12-29T12:02:22.247Z,8.2
2016-12-29T12:03:28.245Z,7.5
2016-12-29T12:04:34.255Z,7.3
2016-12-29T12:05:40.236Z,7.6
2016-12-29T12:06:46.231Z,7.8
2016-12-29T12:07:52.234Z,7.8
2016-12-29T12:08:58.234Z,7.9
2016-12-29T12:10:04.236Z,8
2016-12-29T12:11:10.241Z,8
2016-12-29T12:12:16.240Z,8.1
2016-12-29T12:13:22.230Z,8.3
2016-12-29T12:14:28.229Z,8.4
2016-12-29T12:15:34.237Z,8.4
2016-12-29T12:16:40.224Z,8.2
2016-12-29T12:17:46.221Z,8.4
2016-12-29T12:18:52.216Z,8.7
2016-12-29T12:19:58.217Z,8.9
2016-12-29T12:21:04.226Z,8.5
2016-12-29T12:22:10.237Z,8.6
2016-12-29T12:23:16.228Z,8.5
2016-12-29T12:24:22.246Z,8.6
2016-12-29T12:25:28.225Z,8.5
2016-12-29T12:26:34.229Z,8.7
2016-12-29T12:27:40.231Z,8.6
2016-12-29T12:28:46.230Z,8.6
2016-12-29T12:29:52.226Z,9
2016-12-29T12:30:58.244Z,8.9
2016-12-29T12:32:04.233Z,8.4
2016-12-29T12:33:10.229Z,8.6
2016-12-29T12:34:16.222Z,8.8
2016-12-29T12:35:22.236Z,8.4
2016-12-29T12:36:28.220Z,8.8
2016-12-29T12:37:34.227Z,8.6
2016-12-29T12:38:40.223Z,8.6
2016-12-29T12:39:46.223Z,8.7
2016-12-29T12:40:52.224Z,8.8
2016-12-29T12:41:58.229Z,8.6
2016-12-29T12:43:04.226Z,8.7
2016-12-29T12:44:10.229Z,8.6
2016-12-29T12:45:16.223Z,8.4
2016-12-29T12:46:22.221Z,8
2016-12-29T12:47:28.222Z,7.9
2016-12-29T12:48:34.221Z,7.8
2016-12-29T12:49:40.226Z,7.7
2016-12-29T12:50:46.218Z,7.5
2016-12-29T12:51:52.216Z,7
2016-12-29T12:52:58.219Z,7
2016-12-29T12:54:04.218Z,6.8
2016-12-29T12:55:10.213Z,6.9
2016-12-29T12:56:16.215Z,7
2016-12-29T12:57:22.217Z,7.1
2016-12-29T12:58:28.216Z,7
2016-12-29T12:59:34.208Z,7.1
2016-12-29T13:00:40.209Z,7.1
2016-12-29T13:01:46.217Z,7.1
2016-12-29T13:02:52.211Z,7
2016-12-29T13:03:58.220Z,7
2016-12-29T13:05:04.213Z,6.9
2016-12-29T13:06:10.219Z,6.9
2016-12-29T13:07:16.214Z,7
2016-12-29T13:08:22.216Z,7.1
2016-12-29T13:09:28.215Z,7
2016-12-29T13:10:34.228Z,7.1
2016-12-29T13:11:40.223Z,6.9
2016-12-29T13:12:46.228Z,6.9
2016-12-29T13:13:52.232Z,6.8
2016-12-29T13:14:58.230Z,6.4
2016-12-29T13:16:04.220Z,6.3
2016-12-29T13:17:10.221Z,6.4
2016-12-29T13:18:16.223Z,6.2
2016-12-29T13:19:22.214Z,6.4
2016-12-29T13:20:28.221Z,6.4
2016-12-29T13:21:34.224Z,6.3
2016-12-29T13:22:40.226Z,6.3
2016-12-29T13:23:46.220Z,6.3
2016-12-29T13:24:52.219Z,6.2
2016-12-29T13:25:58.215Z,6.1
2016-12-29T13:27:04.219Z,6
2016-12-29T13:28:10.211Z,6.1
2016-12-29T13:29:16.212Z,6.3
2016-12-29T13:30:22.216Z,6.4
2016-12-29T13:31:28.216Z,6.5
2016-12-29T13:32:34.213Z,6.5
2016-12-29T13:33:40.206Z,6.4
2016-12-29T13:34:46.212Z,6.5
2016-12-29T13:35:52.214Z,6.3
2016-12-29T13:36:58.211Z,6.1
2016-12-29T13:38:04.212Z,5.9
2016-12-29T13:39:10.216Z,6
2016-12-29T13:40:16.220Z,6
2016-12-29T13:41:22.216Z,5.9
2016-12-29T13:42:28.217Z,6
2016-12-29T13:43:34.210Z,5.9
2016-12-29T13:44:40.206Z,6
2016-12-29T13:49:58.691Z,6
2016-12-29T13:51:04.702Z,5.9
2016-12-29T13:52:10.704Z,5.8
2016-12-29T13:53:16.714Z,5.7
2016-12-29T13:54:22.713Z,5.8
2016-12-29T13:55:28.708Z,5.8
2016-12-29T13:56:34.715Z,5.8
2016-12-29T13:57:40.705Z,5.7
2016-12-29T13:58:46.742Z,5.7
2016-12-29T13:59:52.764Z,5.8
2016-12-29T14:00:58.755Z,5.6
2016-12-29T14:02:04.801Z,5.6
2016-12-29T14:03:10.804Z,5.7
2016-12-29T14:04:16.809Z,5.7
2016-12-29T14:05:22.805Z,5.5
2016-12-29T14:06:28.794Z,5.5
2016-12-29T14:07:34.813Z,5.6
2016-12-29T14:08:40.801Z,5.7
2016-12-29T14:09:46.920Z,5.7
2016-12-29T14:10:52.939Z,5.7
2016-12-29T14:11:59.038Z,5.5
2016-12-29T14:13:05.044Z,5.6
2016-12-29T14:14:11.041Z,5.6
2016-12-29T14:15:17.045Z,5.6
2016-12-29T14:16:23.131Z,5.6
2016-12-29T14:17:29.148Z,5.4
2016-12-29T14:18:35.149Z,5.4
2016-12-29T14:19:41.157Z,5.4
2016-12-29T14:20:47.189Z,5.5
2016-12-29T14:21:53.178Z,5.5
2016-12-29T14:22:59.186Z,5.5
2016-12-29T14:24:05.182Z,5.5
2016-12-29T14:25:11.182Z,5.5
2016-12-29T14:26:17.180Z,5.3
2016-12-29T14:27:23.170Z,5.2
2016-12-29T14:28:29.179Z,5.2
2016-12-29T14:29:35.185Z,5.2
2016-12-29T14:30:41.194Z,5.2
2016-12-29T14:31:47.172Z,5.3
2016-12-29T14:32:53.195Z,5.2
2016-12-29T14:33:59.182Z,5.4
2016-12-29T14:35:05.181Z,5.4
2016-12-29T14:36:11.171Z,5.3
2016-12-29T14:37:17.180Z,5
2016-12-29T14:38:23.181Z,5
2016-12-29T14:39:29.178Z,4.9
2016-12-29T14:40:35.183Z,5
2016-12-29T14:41:41.182Z,5.1
2016-12-29T14:42:47.184Z,5.1
2016-12-29T14:43:53.172Z,5.1
2016-12-29T14:44:59.176Z,5
2016-12-29T14:46:05.177Z,5
2016-12-29T14:47:11.171Z,5
2016-12-29T14:48:17.171Z,5
2016-12-29T14:49:23.167Z,4.9
2016-12-29T14:50:29.169Z,4.9
2016-12-29T14:51:35.163Z,4.8
2016-12-29T14:52:41.166Z,4.7
2016-12-29T14:53:47.165Z,4.7
2016-12-29T14:54:53.159Z,4.6
2016-12-29T14:55:59.162Z,4.7
2016-12-29T14:57:05.170Z,4.5
2016-12-29T14:58:11.169Z,4.7
2016-12-29T14:59:17.213Z,4.5
2016-12-29T15:00:23.207Z,4.5
2016-12-29T15:01:29.211Z,4.6
2016-12-29T15:02:35.213Z,4.6
2016-12-29T15:03:41.323Z,4.6
2016-12-29T15:04:47.313Z,4.4
2016-12-29T15:05:53.314Z,4.4
2016-12-29T15:06:59.314Z,4.6
2016-12-29T15:08:05.313Z,4.5
2016-12-29T15:09:11.313Z,4.4
2016-12-29T15:10:17.312Z,4.5
2016-12-29T15:11:23.316Z,4.5
2016-12-29T15:12:29.421Z,4.4
2016-12-29T15:13:35.417Z,4.4
2016-12-29T15:14:41.412Z,4.3
2016-12-29T15:15:47.408Z,4.4
2016-12-29T15:16:53.422Z,4.4